createdAt,value
2019-04-07T00:00:41.149Z,99.55
2019-04-07T00:01:41.234Z,99.86
2019-04-07T00:02:41.129Z,99.76
2019-04-07T00:03:41.130Z,99.99
2019-04-07T00:04:41.436Z,99.99
2019-04-07T00:05:41.515Z,99.99
2019-04-07T00:06:41.509Z,99.99
2019-04-07T00:07:41.433Z,99.99
2019-04-07T00:08:41.045Z,99.99
2019-04-07T00:09:41.050Z,99.99
2019-04-07T00:10:41.373Z,99.99
2019-04-07T00:11:41.009Z,99.99
2019-04-07T00:12:41.257Z,99.99
2019-04-07T00:13:41.403Z,99.99
2019-04-07T00:14:41.003Z,99.99
2019-04-07T00:15:41.523Z,99.99
2019-04-07T00:16:40.959Z,99.99
2019-04-07T00:17:42.026Z,99.99
2019-04-07T00:18:40.993Z,99.99
2019-04-07T00:19:40.970Z,99.99
2019-04-07T00:20:42.019Z,99.99
2019-04-07T00:21:40.929Z,99.99
2019-04-07T00:22:40.896Z,99.99
2019-04-07T00:23:41.006Z,99.99
2019-04-07T00:24:40.907Z,99.99
2019-04-07T00:25:41.468Z,99.99
2019-04-07T00:26:40.874Z,99.99
2019-04-07T00:27:40.851Z,99.99
2019-04-07T00:28:40.857Z,99.99
2019-04-07T00:29:40.824Z,99.99
2019-04-07T00:30:40.843Z,99.99
2019-04-07T00:31:40.848Z,99.99
2019-04-07T00:32:41.274Z,99.99
2019-04-07T00:33:41.348Z,99.98
2019-04-07T00:34:41.449Z,99.77
2019-04-07T00:35:40.809Z,99.56
2019-04-07T00:36:40.763Z,99.66
2019-04-07T00:37:40.743Z,99.61
2019-04-07T00:38:40.750Z,99.66
2019-04-07T00:39:41.373Z,99.56
2019-04-07T00:40:40.710Z,99.56
2019-04-07T00:41:40.699Z,99.56
2019-04-07T00:42:41.309Z,99.51
2019-04-07T00:43:40.685Z,98.57
2019-04-07T00:44:40.708Z,98.05
2019-04-07T00:45:40.676Z,97.27
2019-04-07T00:46:40.664Z,97.89
2019-04-07T00:47:40.640Z,98.30
2019-04-07T00:48:40.767Z,98.30
2019-04-07T00:49:41.170Z,99.34
2019-04-07T00:50:40.622Z,99.03
2019-04-07T00:51:41.014Z,99.34
2019-04-07T00:52:40.591Z,98.66
2019-04-07T00:53:40.851Z,99.80
2019-04-07T00:54:40.894Z,99.80
2019-04-07T00:55:40.850Z,99.91
2019-04-07T00:56:41.078Z,99.91
2019-04-07T00:57:40.754Z,99.54
2019-04-07T00:58:40.655Z,99.91
2019-04-07T00:59:40.840Z,99.59
2019-04-07T01:00:40.505Z,99.64
2019-04-07T01:01:40.494Z,99.54
2019-04-07T01:02:41.311Z,99.99
2019-04-07T01:03:40.492Z,99.02
2019-04-07T01:04:40.699Z,98.50
2019-04-07T01:05:41.800Z,98.39
2019-04-07T01:06:40.621Z,97.56
2019-04-07T01:07:41.028Z,97.92
2019-04-07T01:08:40.434Z,99.33
2019-04-07T01:09:40.436Z,99.99
2019-04-07T01:10:40.555Z,99.99
2019-04-07T01:11:40.395Z,99.99
2019-04-07T01:12:41.111Z,99.99
2019-04-07T01:13:40.379Z,99.99
2019-04-07T01:14:40.423Z,99.99
2019-04-07T01:15:40.655Z,99.99
2019-04-07T01:16:40.726Z,99.99
2019-04-07T01:17:40.350Z,99.99
2019-04-07T01:18:40.517Z,99.99
2019-04-07T01:19:40.707Z,99.99
2019-04-07T01:20:40.327Z,99.99
2019-04-07T01:21:40.426Z,99.99
2019-04-07T01:22:40.799Z,99.99
2019-04-07T01:23:40.273Z,99.99
2019-04-07T01:24:40.669Z,99.99
2019-04-07T01:25:40.246Z,99.99
2019-04-07T01:26:40.512Z,99.99
2019-04-07T01:27:40.232Z,99.99
2019-04-07T01:28:41.724Z,99.99
2019-04-07T01:29:40.257Z,99.85
2019-04-07T01:30:40.416Z,99.90
2019-04-07T01:31:40.456Z,99.68
2019-04-07T01:32:40.181Z,99.58
2019-04-07T01:33:40.169Z,99.90
2019-04-07T01:34:40.444Z,99.79
2019-04-07T01:35:46.753Z,99.90
2019-04-07T01:36:41.318Z,99.99
2019-04-07T01:37:40.622Z,99.99
2019-04-07T01:38:40.122Z,99.99
2019-04-07T01:39:40.157Z,99.99
2019-04-07T01:40:40.093Z,99.99
2019-04-07T01:41:40.747Z,99.99
2019-04-07T01:42:40.076Z,99.99
2019-04-07T01:43:40.488Z,99.99
2019-04-07T01:44:40.080Z,99.99
2019-04-07T01:45:40.732Z,99.99
2019-04-07T01:46:40.466Z,99.99
2019-04-07T01:47:40.029Z,99.99
2019-04-07T01:48:40.020Z,99.99
2019-04-07T01:49:40.188Z,99.99
2019-04-07T01:50:40.129Z,99.99
2019-04-07T01:51:40.125Z,99.99
2019-04-07T01:52:39.977Z,99.99
2019-04-07T01:53:39.966Z,99.99
2019-04-07T01:54:40.025Z,99.99
2019-04-07T01:55:40.042Z,99.99
2019-04-07T01:56:40.000Z,99.99
2019-04-07T01:57:39.952Z,99.99
2019-04-07T01:58:40.674Z,99.99
2019-04-07T01:59:39.932Z,99.99
2019-04-07T02:00:40.367Z,99.99
2019-04-07T02:01:40.094Z,99.99
2019-04-07T02:02:40.117Z,99.99
2019-04-07T02:03:39.856Z,99.99
2019-04-07T02:04:39.984Z,99.99
2019-04-07T02:05:39.841Z,99.99
2019-04-07T02:06:39.959Z,99.99
2019-04-07T02:07:40.077Z,99.99
2019-04-07T02:08:40.292Z,99.99
2019-04-07T02:09:40.236Z,99.99
2019-04-07T02:10:40.719Z,99.99
2019-04-07T02:11:40.144Z,99.99
2019-04-07T02:12:40.211Z,99.99
2019-04-07T02:13:40.475Z,99.99
2019-04-07T02:14:41.062Z,99.99
2019-04-07T02:15:40.588Z,99.99
2019-04-07T02:16:40.023Z,99.99
2019-04-07T02:17:40.703Z,99.99
2019-04-07T02:18:40.088Z,99.99
2019-04-07T02:19:40.785Z,99.99
2019-04-07T02:20:39.736Z,99.99
2019-04-07T02:21:40.332Z,99.99
2019-04-07T02:22:39.702Z,99.99
2019-04-07T02:23:40.509Z,99.99
2019-04-07T02:24:39.942Z,99.99
2019-04-07T02:25:39.682Z,99.99
2019-04-07T02:26:39.762Z,99.99
2019-04-07T02:27:39.670Z,99.99
2019-04-07T02:28:40.830Z,99.99
2019-04-07T02:29:40.066Z,99.99
2019-04-07T02:30:39.631Z,99.99
2019-04-07T02:31:40.092Z,99.99
2019-04-07T02:32:39.622Z,99.99
2019-04-07T02:33:39.600Z,99.99
2019-04-07T02:34:40.093Z,99.99
2019-04-07T02:35:39.605Z,99.99
2019-04-07T02:36:39.572Z,99.99
2019-04-07T02:37:39.635Z,99.99
2019-04-07T02:38:39.758Z,99.99
2019-04-07T02:39:39.555Z,99.99
2019-04-07T02:40:40.544Z,99.99
2019-04-07T02:41:40.177Z,99.99
2019-04-07T02:42:39.919Z,99.99
2019-04-07T02:43:40.375Z,99.99
2019-04-07T02:44:39.511Z,99.99
2019-04-07T02:45:39.480Z,99.99
2019-04-07T02:46:40.675Z,99.99
2019-04-07T02:47:39.488Z,99.99
2019-04-07T02:48:39.577Z,99.99
2019-04-07T02:49:39.533Z,99.99
2019-04-07T02:50:39.910Z,99.99
2019-04-07T02:51:40.321Z,99.99
2019-04-07T02:52:39.436Z,99.99
2019-04-07T02:53:39.393Z,99.99
2019-04-07T02:54:40.058Z,99.99
2019-04-07T02:55:39.381Z,99.99
2019-04-07T02:56:39.888Z,99.99
2019-04-07T02:57:40.318Z,99.99
2019-04-07T02:58:40.238Z,99.99
2019-04-07T02:59:41.450Z,99.99
2019-04-07T03:00:39.485Z,99.99
2019-04-07T03:01:39.318Z,99.99
2019-04-07T03:02:39.434Z,99.99
2019-04-07T03:03:39.550Z,99.99
2019-04-07T03:04:39.281Z,99.99
2019-04-07T03:05:40.366Z,99.99
2019-04-07T03:06:47.786Z,99.99
2019-04-07T03:07:41.269Z,99.99
2019-04-07T03:08:39.634Z,99.99
2019-04-07T03:09:40.004Z,99.99
2019-04-07T03:10:39.252Z,99.99
2019-04-07T03:11:39.374Z,99.99
2019-04-07T03:12:39.398Z,99.99
2019-04-07T03:13:39.321Z,99.99
2019-04-07T03:14:39.296Z,99.99
2019-04-07T03:15:39.246Z,99.99
2019-04-07T03:16:39.468Z,99.99
2019-04-07T03:17:39.114Z,99.99
2019-04-07T03:18:39.125Z,99.99
2019-04-07T03:19:39.370Z,99.99
2019-04-07T03:20:39.244Z,99.99
2019-04-07T03:21:39.096Z,99.99
2019-04-07T03:22:39.743Z,99.99
2019-04-07T03:23:39.065Z,99.99
2019-04-07T03:24:39.054Z,99.99
2019-04-07T03:25:39.759Z,99.99
2019-04-07T03:26:39.054Z,99.99
2019-04-07T03:27:39.006Z,99.99
2019-04-07T03:28:39.901Z,99.99
2019-04-07T03:29:38.989Z,99.99
2019-04-07T03:30:40.897Z,99.99
2019-04-07T03:31:40.881Z,99.99
2019-04-07T03:32:42.821Z,99.99
2019-04-07T03:33:43.053Z,99.99
2019-04-07T03:34:40.818Z,99.99
2019-04-07T03:35:41.058Z,99.99
2019-04-07T03:37:09.893Z,99.99
2019-04-07T03:37:44.354Z,99.99
2019-04-07T03:38:41.083Z,99.99
2019-04-07T03:39:39.396Z,99.99
2019-04-07T03:40:39.039Z,99.99
2019-04-07T03:41:39.923Z,99.99
2019-04-07T03:42:38.866Z,99.99
2019-04-07T03:43:40.029Z,99.99
2019-04-07T03:44:38.847Z,99.99
2019-04-07T03:45:38.856Z,99.99
2019-04-07T03:46:38.976Z,99.99
2019-04-07T03:47:39.578Z,99.99
2019-04-07T03:48:38.801Z,99.99
2019-04-07T03:49:39.301Z,99.99
2019-04-07T03:50:38.818Z,99.99
2019-04-07T03:51:39.378Z,99.99
2019-04-07T03:52:39.376Z,99.99
2019-04-07T03:53:39.327Z,99.99
2019-04-07T03:54:39.855Z,99.99
2019-04-07T03:55:38.834Z,99.99
2019-04-07T03:56:38.717Z,99.99
2019-04-07T03:57:39.042Z,99.99
2019-04-07T03:58:40.656Z,99.99
2019-04-07T03:59:38.692Z,99.99
2019-04-07T04:00:39.298Z,99.99
2019-04-07T04:01:38.688Z,99.99
2019-04-07T04:02:39.076Z,99.99
2019-04-07T04:03:38.805Z,99.99
2019-04-07T04:04:39.502Z,99.99
2019-04-07T04:05:39.358Z,99.99
2019-04-07T04:06:38.888Z,99.99
2019-04-07T04:07:39.132Z,99.99
2019-04-07T04:08:38.573Z,99.99
2019-04-07T04:09:40.905Z,99.99
2019-04-07T04:10:38.647Z,99.99
2019-04-07T04:11:39.400Z,99.99
2019-04-07T04:12:38.598Z,99.99
2019-04-07T04:13:38.533Z,99.99
2019-04-07T04:14:38.522Z,99.99
2019-04-07T04:15:39.507Z,99.99
2019-04-07T04:16:38.503Z,99.99
2019-04-07T04:17:39.129Z,99.99
2019-04-07T04:18:39.234Z,99.99
2019-04-07T04:19:38.720Z,99.99
2019-04-07T04:20:38.802Z,99.99
2019-04-07T04:21:38.452Z,99.99
2019-04-07T04:22:39.552Z,99.99
2019-04-07T04:23:41.529Z,99.99
2019-04-07T04:24:38.424Z,99.99
2019-04-07T04:25:38.602Z,99.99
2019-04-07T04:26:38.396Z,99.99
2019-04-07T04:27:38.762Z,99.99
2019-04-07T04:28:39.055Z,99.99
2019-04-07T04:29:39.314Z,99.99
2019-04-07T04:30:38.400Z,99.99
2019-04-07T04:31:38.916Z,99.99
2019-04-07T04:32:39.465Z,99.99
2019-04-07T04:33:38.328Z,99.99
2019-04-07T04:34:39.006Z,99.99
2019-04-07T04:35:38.858Z,99.99
2019-04-07T04:36:38.295Z,99.99
2019-04-07T04:37:44.178Z,99.99
2019-04-07T04:38:39.278Z,99.99
2019-04-07T04:39:38.790Z,99.99
2019-04-07T04:40:38.286Z,99.99
2019-04-07T04:41:38.614Z,99.99
2019-04-07T04:42:38.364Z,99.99
2019-04-07T04:43:38.491Z,99.99
2019-04-07T04:44:38.230Z,99.99
2019-04-07T04:45:38.657Z,99.99
2019-04-07T04:46:38.746Z,99.99
2019-04-07T04:47:39.317Z,99.99
2019-04-07T04:48:38.760Z,99.99
2019-04-07T04:49:38.517Z,99.99
2019-04-07T04:50:38.465Z,99.99
2019-04-07T04:51:39.541Z,99.99
2019-04-07T04:52:38.326Z,99.99
2019-04-07T04:53:38.251Z,99.99
2019-04-07T04:54:38.849Z,99.99
2019-04-07T04:55:38.120Z,99.99
2019-04-07T04:56:38.118Z,99.99
2019-04-07T04:57:38.643Z,99.99
2019-04-07T04:58:38.232Z,99.99
2019-04-07T04:59:38.103Z,99.99
2019-04-07T05:00:38.424Z,99.99
2019-04-07T05:01:38.039Z,99.99
2019-04-07T05:02:38.305Z,99.99
2019-04-07T05:03:38.357Z,99.99
2019-04-07T05:04:38.503Z,99.99
2019-04-07T05:05:38.148Z,99.99
2019-04-07T05:06:37.988Z,99.99
2019-04-07T05:07:51.721Z,99.99
2019-04-07T05:08:39.227Z,99.99
2019-04-07T05:09:44.306Z,99.99
2019-04-07T05:10:38.986Z,99.99
2019-04-07T05:11:37.935Z,99.99
2019-04-07T05:12:38.021Z,99.99
2019-04-07T05:13:38.496Z,99.99
2019-04-07T05:14:37.921Z,99.99
2019-04-07T05:15:37.953Z,99.99
2019-04-07T05:16:37.901Z,99.99
2019-04-07T05:17:38.126Z,99.99
2019-04-07T05:18:38.260Z,99.99
2019-04-07T05:19:37.854Z,99.99
2019-04-07T05:20:37.872Z,99.99
2019-04-07T05:21:37.859Z,99.99
2019-04-07T05:22:38.048Z,99.99
2019-04-07T05:23:38.496Z,99.99
2019-04-07T05:24:37.800Z,99.99
2019-04-07T05:25:37.865Z,99.99
2019-04-07T05:26:37.789Z,99.99
2019-04-07T05:27:38.273Z,99.99
2019-04-07T05:28:38.026Z,99.94
2019-04-07T05:29:37.754Z,99.99
2019-04-07T05:30:38.027Z,99.99
2019-04-07T05:31:37.985Z,99.99
2019-04-07T05:32:37.899Z,99.99
2019-04-07T05:33:37.707Z,99.43
2019-04-07T05:34:37.842Z,99.52
2019-04-07T05:35:37.964Z,99.52
2019-04-07T05:36:37.959Z,99.32
2019-04-07T05:37:38.359Z,99.43
2019-04-07T05:38:37.787Z,99.73
2019-04-07T05:39:38.362Z,99.48
2019-04-07T05:40:37.669Z,99.69
2019-04-07T05:41:38.415Z,99.90
2019-04-07T05:42:37.950Z,99.99
2019-04-07T05:43:38.164Z,99.99
2019-04-07T05:44:37.593Z,99.95
2019-04-07T05:45:37.762Z,99.99
2019-04-07T05:46:40.283Z,99.99
2019-04-07T05:47:37.563Z,99.99
2019-04-07T05:48:38.277Z,99.91
2019-04-07T05:49:37.778Z,99.39
2019-04-07T05:50:37.576Z,99.49
2019-04-07T05:51:37.521Z,99.29
2019-04-07T05:52:39.817Z,99.49
2019-04-07T05:53:37.718Z,99.08
2019-04-07T05:54:37.868Z,99.24
2019-04-07T05:55:38.022Z,99.49
2019-04-07T05:56:38.004Z,99.24
2019-04-07T05:57:37.799Z,99.04
2019-04-07T05:58:38.690Z,99.04
2019-04-07T05:59:37.686Z,99.24
2019-04-07T06:00:37.498Z,98.72
2019-04-07T06:01:37.418Z,98.16
2019-04-07T06:02:37.566Z,98.47
2019-04-07T06:03:41.179Z,98.37
2019-04-07T06:04:38.390Z,98.37
2019-04-07T06:05:37.673Z,97.96
2019-04-07T06:06:39.888Z,97.96
2019-04-07T06:07:37.828Z,97.81
2019-04-07T06:08:39.902Z,97.19
2019-04-07T06:09:37.375Z,97.08
2019-04-07T06:10:38.634Z,96.56
2019-04-07T06:12:47.386Z,96.73
2019-04-07T06:13:46.616Z,96.83
2019-04-07T06:14:46.986Z,96.69
2019-04-07T06:15:46.650Z,96.69
2019-04-07T06:16:46.032Z,96.58
2019-04-07T06:17:46.033Z,96.79
2019-04-07T06:18:46.629Z,96.53
2019-04-07T06:19:46.022Z,96.53
2019-04-07T06:20:46.691Z,96.74
2019-04-07T06:21:47.272Z,96.84
2019-04-07T06:22:46.991Z,96.08
2019-04-07T06:23:45.954Z,96.80
2019-04-07T06:24:46.103Z,95.67
2019-04-07T06:25:46.418Z,96.70
2019-04-07T06:26:49.679Z,96.49
2019-04-07T06:27:46.653Z,96.66
2019-04-07T06:28:51.141Z,96.66
2019-04-07T06:29:46.897Z,96.55
2019-04-07T06:30:46.194Z,97.17
2019-04-07T06:31:45.897Z,96.75
2019-04-07T06:32:46.313Z,97.38
2019-04-07T06:33:45.898Z,96.45
2019-04-07T06:34:48.687Z,97.27
2019-04-07T06:35:47.329Z,96.96
2019-04-07T06:36:48.375Z,96.45
2019-04-07T06:37:47.588Z,96.71
2019-04-07T06:38:50.971Z,96.41
2019-04-07T06:39:50.046Z,95.68
2019-04-07T06:40:45.986Z,95.64
2019-04-07T06:41:46.515Z,95.02
2019-04-07T06:42:45.879Z,95.12
2019-04-07T06:43:46.357Z,95.33
2019-04-07T06:44:45.825Z,95.23
2019-04-07T06:45:46.402Z,95.12
2019-04-07T06:46:45.754Z,94.87
2019-04-07T06:47:45.774Z,94.71
2019-04-07T06:48:46.041Z,95.18
2019-04-07T06:49:47.167Z,95.03
2019-04-07T06:50:50.793Z,94.93
2019-04-07T06:51:46.690Z,94.01
2019-04-07T06:52:45.666Z,93.59
2019-04-07T06:53:48.216Z,93.14
2019-04-07T06:54:46.042Z,93.35
2019-04-07T06:55:46.113Z,92.87
2019-04-07T06:56:45.767Z,92.97
2019-04-07T06:57:46.515Z,92.73
2019-04-07T06:58:45.600Z,93.55
2019-04-07T06:59:48.946Z,92.73
2019-04-07T07:00:45.575Z,92.79
2019-04-07T07:01:45.934Z,93.14
2019-04-07T07:02:45.557Z,92.17
2019-04-07T07:03:45.540Z,91.66
2019-04-07T07:04:46.562Z,91.55
2019-04-07T07:05:46.207Z,90.89
2019-04-07T07:06:47.176Z,91.35
2019-04-07T07:07:47.784Z,92.23
2019-04-07T07:08:47.466Z,91.00
2019-04-07T07:09:45.862Z,91.61
2019-04-07T07:10:45.700Z,91.31
2019-04-07T07:11:46.127Z,90.59
2019-04-07T07:12:46.109Z,90.85
2019-04-07T07:13:45.441Z,91.63
2019-04-07T07:14:46.943Z,90.09
2019-04-07T07:15:46.078Z,90.40
2019-04-07T07:16:46.844Z,89.58
2019-04-07T07:17:47.823Z,88.70
2019-04-07T07:18:45.869Z,89.42
2019-04-07T07:19:45.375Z,89.99
2019-04-07T07:20:46.128Z,89.99
2019-04-07T07:21:45.381Z,90.09
2019-04-07T07:22:47.584Z,88.86
2019-04-07T07:23:48.919Z,88.66
2019-04-07T07:24:47.099Z,88.82
2019-04-07T07:25:45.486Z,87.08
2019-04-07T07:26:45.314Z,88.31
2019-04-07T07:27:46.037Z,88.00
2019-04-07T07:28:45.779Z,87.04
2019-04-07T07:29:46.767Z,88.17
2019-04-07T07:30:47.361Z,88.57
2019-04-07T07:31:45.289Z,86.69
2019-04-07T07:32:45.235Z,86.38
2019-04-07T07:33:45.235Z,87.06
2019-04-07T07:34:45.220Z,85.83
2019-04-07T07:35:48.824Z,86.14
2019-04-07T07:36:46.721Z,86.30
2019-04-07T07:37:45.526Z,85.69
2019-04-07T07:38:55.436Z,81.49
2019-04-07T07:39:47.044Z,82.71
2019-04-07T07:40:47.791Z,82.51
2019-04-07T07:41:45.702Z,81.90
2019-04-07T07:42:46.679Z,84.15
2019-04-07T07:43:46.055Z,83.13
2019-04-07T07:44:45.118Z,85.17
2019-04-07T07:45:48.326Z,83.70
2019-04-07T07:46:45.336Z,81.45
2019-04-07T07:47:45.113Z,82.95
2019-04-07T07:48:45.647Z,81.82
2019-04-07T07:49:45.056Z,81.65
2019-04-07T07:50:45.774Z,81.93
2019-04-07T07:51:47.582Z,82.95
2019-04-07T07:52:47.303Z,79.74
2019-04-07T07:53:45.071Z,78.38
2019-04-07T07:54:46.087Z,78.78
2019-04-07T07:55:45.541Z,80.58
2019-04-07T07:56:48.654Z,78.20
2019-04-07T07:57:45.970Z,77.34
2019-04-07T07:58:45.183Z,74.25
2019-04-07T07:59:44.987Z,75.48
2019-04-07T08:00:44.944Z,72.08
2019-04-07T08:01:46.977Z,74.21
2019-04-07T08:02:49.081Z,73.30
2019-04-07T08:03:45.986Z,75.03
2019-04-07T08:04:44.926Z,74.11
2019-04-07T08:05:45.480Z,73.91
2019-04-07T08:06:45.042Z,75.13
2019-04-07T08:07:48.203Z,73.36
2019-04-07T08:08:46.207Z,73.02
2019-04-07T08:09:44.872Z,70.65
2019-04-07T08:10:45.080Z,70.72
2019-04-07T08:11:44.948Z,69.80
2019-04-07T08:12:45.729Z,71.36
2019-04-07T08:13:45.948Z,71.06
2019-04-07T08:14:49.695Z,71.26
2019-04-07T08:15:45.870Z,69.63
2019-04-07T08:16:44.771Z,69.36
2019-04-07T08:17:45.269Z,70.38
2019-04-07T08:18:46.436Z,71.30
2019-04-07T08:19:45.614Z,70.55
2019-04-07T08:20:45.183Z,69.09
2019-04-07T08:21:45.516Z,69.32
2019-04-07T08:22:45.012Z,71.77
2019-04-07T08:23:45.428Z,72.28
2019-04-07T08:24:45.488Z,70.92
2019-04-07T08:25:44.679Z,71.94
2019-04-07T08:26:44.824Z,70.00
2019-04-07T08:27:45.251Z,69.46
2019-04-07T08:28:45.072Z,68.82
2019-04-07T08:29:45.225Z,67.36
2019-04-07T08:30:47.464Z,67.02
2019-04-07T08:31:44.899Z,65.60
2019-04-07T08:32:45.335Z,66.69
2019-04-07T08:33:44.622Z,65.47
2019-04-07T08:34:44.868Z,64.90
2019-04-07T08:35:44.581Z,62.76
2019-04-07T08:36:46.187Z,63.75
2019-04-07T08:37:46.345Z,60.98
2019-04-07T08:38:44.553Z,62.10
2019-04-07T08:39:44.636Z,63.11
2019-04-07T08:40:44.601Z,63.04
2019-04-07T08:41:45.187Z,63.34
2019-04-07T08:42:48.270Z,62.02
2019-04-07T08:43:45.207Z,62.20
2019-04-07T08:44:45.148Z,60.98
2019-04-07T08:45:44.901Z,60.58
2019-04-07T08:46:45.350Z,60.60
2019-04-07T08:47:47.348Z,61.52
2019-04-07T08:48:44.440Z,62.63
2019-04-07T08:49:44.429Z,62.43
2019-04-07T08:50:45.242Z,61.59
2019-04-07T08:51:44.887Z,61.21
2019-04-07T08:52:44.392Z,62.71
2019-04-07T08:53:45.117Z,60.81
2019-04-07T08:54:48.259Z,61.41
2019-04-07T08:55:48.594Z,62.63
2019-04-07T08:56:44.379Z,63.14
2019-04-07T08:57:44.603Z,63.28
2019-04-07T08:58:44.544Z,62.43
2019-04-07T08:59:45.362Z,63.07
2019-04-07T09:00:51.015Z,62.56
2019-04-07T09:01:45.336Z,64.29
2019-04-07T09:02:59.181Z,64.26
2019-04-07T09:03:45.885Z,62.60
2019-04-07T09:05:06.526Z,62.71
2019-04-07T09:05:51.463Z,59.16
2019-04-07T09:06:45.873Z,60.91
2019-04-07T09:07:44.888Z,60.98
2019-04-07T09:08:44.812Z,61.18
2019-04-07T09:10:53.806Z,61.56
2019-04-07T09:11:57.266Z,60.95
2019-04-07T09:12:53.296Z,60.44
2019-04-07T09:13:54.803Z,59.88
2019-04-07T09:15:14.357Z,59.68
2019-04-07T09:15:56.757Z,58.84
2019-04-07T09:16:56.121Z,59.42
2019-04-07T09:17:53.279Z,57.98
2019-04-07T09:19:01.780Z,56.59
2019-04-07T09:19:55.403Z,57.29
2019-04-07T09:20:53.221Z,57.83
2019-04-07T09:21:54.240Z,55.88
2019-04-07T09:22:56.846Z,57.27
2019-04-07T09:23:55.706Z,56.63
2019-04-07T09:24:54.846Z,56.20
2019-04-07T09:25:53.172Z,53.75
2019-04-07T09:26:53.171Z,55.24
2019-04-07T09:27:57.250Z,54.66
2019-04-07T09:28:55.727Z,54.74
2019-04-07T09:31:03.614Z,56.00
2019-04-07T09:32:02.727Z,56.30
2019-04-07T09:33:03.307Z,55.22
2019-04-07T09:34:03.565Z,54.58
2019-04-07T09:35:06.917Z,54.56
2019-04-07T09:36:03.704Z,55.24
2019-04-07T09:37:05.794Z,53.58
2019-04-07T09:38:03.224Z,54.76
2019-04-07T09:39:03.905Z,53.05
2019-04-07T09:40:04.522Z,51.25
2019-04-07T09:41:27.488Z,51.81
2019-04-07T09:42:26.753Z,50.10
2019-04-07T09:43:05.456Z,50.62
2019-04-07T09:44:09.218Z,50.85
2019-04-07T09:45:03.363Z,50.95
2019-04-07T09:46:03.552Z,51.15
2019-04-07T09:47:02.496Z,51.58
2019-04-07T09:48:02.492Z,52.82
2019-04-07T09:49:04.481Z,52.44
2019-04-07T09:50:04.808Z,53.17
2019-04-07T09:52:15.079Z,52.82
2019-04-07T09:53:13.788Z,52.59
2019-04-07T09:54:13.205Z,52.36
2019-04-07T09:55:13.114Z,51.73
2019-04-07T09:56:13.017Z,51.51
2019-04-07T09:57:14.201Z,52.01
2019-04-07T09:58:12.988Z,51.53
2019-04-07T09:59:18.160Z,50.93
2019-04-07T10:00:14.308Z,50.93
2019-04-07T10:01:15.138Z,51.84
2019-04-07T10:02:38.286Z,51.23
2019-04-07T10:03:14.035Z,51.43
2019-04-07T10:04:30.453Z,50.90
2019-04-07T10:05:12.945Z,51.51
2019-04-07T10:06:12.916Z,50.10
2019-04-07T10:07:15.123Z,49.99
2019-04-07T10:08:13.899Z,50.22
2019-04-07T10:09:12.179Z,50.57
2019-04-07T10:10:14.789Z,50.15
2019-04-07T10:11:12.947Z,50.80
2019-04-07T10:12:13.060Z,49.69
2019-04-07T10:13:14.637Z,50.50
2019-04-07T10:14:12.927Z,49.85
2019-04-07T10:15:13.006Z,49.50
2019-04-07T10:16:13.276Z,48.37
2019-04-07T10:17:12.969Z,49.18
2019-04-07T10:18:13.212Z,48.72
2019-04-07T10:19:12.049Z,48.59
2019-04-07T10:20:12.347Z,48.82
2019-04-07T10:21:12.294Z,48.82
2019-04-07T10:22:12.456Z,48.69
2019-04-07T10:23:16.397Z,48.14
2019-04-07T10:24:33.003Z,47.86
2019-04-07T10:25:12.931Z,49.32
2019-04-07T10:26:13.081Z,48.44
2019-04-07T10:27:12.923Z,49.24
2019-04-07T10:28:51.467Z,50.57
2019-04-07T10:29:12.256Z,49.29
2019-04-07T10:30:11.940Z,51.64
2019-04-07T10:31:12.611Z,51.35
2019-04-07T10:32:12.501Z,51.96
2019-04-07T10:33:12.168Z,52.06
2019-04-07T10:34:13.287Z,52.79
2019-04-07T10:35:33.540Z,50.78
2019-04-07T10:36:33.494Z,51.38
2019-04-07T10:37:12.135Z,52.31
2019-04-07T10:38:15.343Z,53.34
2019-04-07T10:39:27.508Z,52.03
2019-04-07T10:40:19.528Z,53.52
2019-04-07T10:41:14.074Z,51.63
2019-04-07T10:42:12.667Z,51.48
2019-04-07T10:43:13.802Z,52.19
2019-04-07T10:44:34.071Z,51.98
2019-04-07T10:45:12.014Z,52.36
2019-04-07T10:47:21.833Z,54.05
2019-04-07T10:48:24.887Z,53.67
2019-04-07T10:49:22.775Z,53.67
2019-04-07T10:50:21.159Z,52.67
2019-04-07T10:51:21.172Z,52.04
2019-04-07T10:52:21.454Z,53.02
2019-04-07T10:53:21.116Z,52.72
2019-04-07T10:54:22.207Z,51.31
2019-04-07T10:55:21.115Z,52.42
2019-04-07T10:56:21.250Z,51.68
2019-04-07T10:57:22.114Z,48.41
2019-04-07T10:58:21.059Z,47.66
2019-04-07T10:59:21.049Z,47.32
2019-04-07T11:00:21.354Z,44.89
2019-04-07T11:01:21.078Z,44.96
2019-04-07T11:02:21.008Z,45.17
2019-04-07T11:03:21.353Z,44.96
2019-04-07T11:04:21.807Z,44.76
2019-04-07T11:05:21.739Z,46.11
2019-04-07T11:06:21.608Z,47.42
2019-04-07T11:07:21.641Z,47.72
2019-04-07T11:08:20.960Z,48.29
2019-04-07T11:09:21.157Z,48.03
2019-04-07T11:10:33.057Z,50.07
2019-04-07T11:11:22.274Z,50.93
2019-04-07T11:12:21.177Z,52.26
2019-04-07T11:13:20.979Z,52.01
2019-04-07T11:14:21.691Z,53.25
2019-04-07T11:15:20.884Z,54.58
2019-04-07T11:16:20.872Z,54.46
2019-04-07T11:17:21.566Z,53.75
2019-04-07T11:18:20.866Z,53.22
2019-04-07T11:19:20.834Z,51.98
2019-04-07T11:20:21.439Z,53.32
2019-04-07T11:21:21.481Z,51.58
2019-04-07T11:22:20.804Z,51.86
2019-04-07T11:23:20.819Z,50.02
2019-04-07T11:24:20.778Z,50.20
2019-04-07T11:25:20.764Z,48.92
2019-04-07T11:26:20.900Z,49.68
2019-04-07T11:27:21.128Z,48.37
2019-04-07T11:28:20.884Z,50.10
2019-04-07T11:29:20.731Z,47.61
2019-04-07T11:30:21.337Z,48.52
2019-04-07T11:31:21.235Z,50.13
2019-04-07T11:32:20.698Z,49.40
2019-04-07T11:33:20.921Z,45.83
2019-04-07T11:34:20.670Z,47.39
2019-04-07T11:35:21.125Z,43.10
2019-04-07T11:36:22.564Z,43.16
2019-04-07T11:37:20.664Z,42.05
2019-04-07T11:38:21.265Z,43.48
2019-04-07T11:39:20.624Z,43.90
2019-04-07T11:40:21.048Z,42.91
2019-04-07T11:41:23.594Z,42.90
2019-04-07T11:42:21.592Z,43.27
2019-04-07T11:43:20.832Z,41.33
2019-04-07T11:44:20.605Z,39.69
2019-04-07T11:45:20.775Z,39.78
2019-04-07T11:46:20.543Z,41.08
2019-04-07T11:47:20.761Z,42.10
2019-04-07T11:48:20.995Z,43.55
2019-04-07T11:49:21.369Z,46.25
2019-04-07T11:50:21.254Z,45.79
2019-04-07T11:51:20.636Z,46.11
2019-04-07T11:52:20.490Z,46.27
2019-04-07T11:53:21.227Z,46.15
2019-04-07T11:54:20.477Z,44.92
2019-04-07T11:55:20.531Z,44.30
2019-04-07T11:56:20.678Z,45.90
2019-04-07T11:57:20.537Z,45.04
2019-04-07T11:58:27.304Z,45.75
2019-04-07T11:59:21.945Z,45.59
2019-04-07T12:00:20.651Z,45.01
2019-04-07T12:01:20.386Z,45.41
2019-04-07T12:02:21.616Z,45.01
2019-04-07T12:03:24.811Z,46.64
2019-04-07T12:04:21.692Z,46.03
2019-04-07T12:05:20.342Z,48.19
2019-04-07T12:06:23.381Z,50.13
2019-04-07T12:07:21.937Z,48.61
2019-04-07T12:08:20.431Z,48.32
2019-04-07T12:09:20.686Z,47.59
2019-04-07T12:10:20.378Z,48.37
2019-04-07T12:11:20.296Z,47.99
2019-04-07T12:12:20.452Z,48.19
2019-04-07T12:13:21.079Z,48.79
2019-04-07T12:14:20.369Z,48.47
2019-04-07T12:15:24.269Z,46.66
2019-04-07T12:16:21.991Z,47.16
2019-04-07T12:17:21.057Z,46.68
2019-04-07T12:18:20.419Z,48.29
2019-04-07T12:19:22.850Z,48.39
2019-04-07T12:20:20.737Z,48.29
2019-04-07T12:21:24.003Z,48.37
2019-04-07T12:22:21.679Z,46.86
2019-04-07T12:23:23.302Z,49.48
2019-04-07T12:24:24.674Z,48.52
2019-04-07T12:25:20.159Z,46.07
2019-04-07T12:26:20.499Z,44.92
2019-04-07T12:27:21.610Z,46.53
2019-04-07T12:28:20.582Z,48.93
2019-04-07T12:29:20.102Z,47.41
2019-04-07T12:30:22.400Z,44.30
2019-04-07T12:31:20.079Z,46.85
2019-04-07T12:32:20.255Z,46.39
2019-04-07T12:33:22.872Z,47.94
2019-04-07T12:34:20.035Z,47.54
2019-04-07T12:35:20.323Z,48.14
2019-04-07T12:36:20.546Z,48.57
2019-04-07T12:37:20.678Z,48.59
2019-04-07T12:38:20.921Z,48.55
2019-04-07T12:39:20.247Z,48.95
2019-04-07T12:40:22.349Z,47.52
2019-04-07T12:41:22.177Z,46.39
2019-04-07T12:42:20.266Z,47.80
2019-04-07T12:43:19.993Z,45.69
2019-04-07T12:44:20.182Z,46.27
2019-04-07T12:45:19.928Z,46.51
2019-04-07T12:46:21.014Z,45.81
2019-04-07T12:47:19.905Z,46.92
2019-04-07T12:48:19.923Z,49.30
2019-04-07T12:49:20.673Z,47.90
2019-04-07T12:50:21.002Z,49.43
2019-04-07T12:51:21.344Z,49.07
2019-04-07T12:52:20.597Z,48.47
2019-04-07T12:53:19.864Z,49.98
2019-04-07T12:54:20.583Z,49.76
2019-04-07T12:55:19.820Z,49.55
2019-04-07T12:56:19.857Z,49.48
2019-04-07T12:57:19.810Z,49.05
2019-04-07T12:58:19.810Z,49.37